createdAt,value
2023-03-15T00:00:14.733Z,100.00
2023-03-15T00:01:21.344Z,100.00
2023-03-15T00:02:23.519Z,100.00
2023-03-15T00:03:28.193Z,100.00
2023-03-15T00:04:32.579Z,100.00
2023-03-15T00:05:37.448Z,100.00
2023-03-15T00:06:39.546Z,100.00
2023-03-15T00:07:44.229Z,100.00
2023-03-15T00:08:47.987Z,100.00
2023-03-15T00:09:52.903Z,100.00
2023-03-15T00:10:55.015Z,100.00
2023-03-15T00:11:59.630Z,100.00
2023-03-15T00:13:01.728Z,100.00
2023-03-15T00:14:06.442Z,100.00
2023-03-15T00:15:14.425Z,100.00
2023-03-15T00:16:19.252Z,100.00
2023-03-15T00:17:22.911Z,100.00
2023-03-15T00:18:27.959Z,100.00
2023-03-15T00:19:30.623Z,100.00
2023-03-15T00:20:35.324Z,100.00
2023-03-15T00:21:37.561Z,100.00
2023-03-15T00:22:42.182Z,100.00
2023-03-15T00:23:44.387Z,100.00
2023-03-15T00:24:49.249Z,100.00
2023-03-15T00:25:52.798Z,100.00
2023-03-15T00:26:57.356Z,100.00
2023-03-15T00:27:59.373Z,100.00
2023-03-15T00:29:03.958Z,100.00
2023-03-15T00:30:07.370Z,100.00
2023-03-15T00:31:17.845Z,100.00
2023-03-15T00:32:20.080Z,100.00
2023-03-15T00:33:24.702Z,100.00
2023-03-15T00:34:26.810Z,100.00
2023-03-15T00:35:31.597Z,100.00
2023-03-15T00:36:33.734Z,100.00
2023-03-15T00:37:38.561Z,100.00
2023-03-15T00:38:44.163Z,100.00
2023-03-15T00:39:48.895Z,100.00
2023-03-15T00:40:50.904Z,100.00
2023-03-15T00:41:57.022Z,100.00
2023-03-15T00:42:59.267Z,100.00
2023-03-15T00:44:04.400Z,100.00
2023-03-15T00:45:08.239Z,100.00
2023-03-15T00:46:15.730Z,100.00
2023-03-15T00:47:17.780Z,100.00
2023-03-15T00:48:22.647Z,100.00
2023-03-15T00:49:24.650Z,100.00
2023-03-15T00:50:29.466Z,100.00
2023-03-15T00:51:32.026Z,100.00
2023-03-15T00:52:38.816Z,100.00
2023-03-15T00:53:45.412Z,100.00
2023-03-15T00:54:52.271Z,100.00
2023-03-15T00:55:57.147Z,100.00
2023-03-15T00:56:59.338Z,100.00
2023-03-15T00:58:03.969Z,100.00
2023-03-15T00:59:06.150Z,100.00
2023-03-15T01:00:14.116Z,100.00
2023-03-15T01:01:22.263Z,100.00
2023-03-15T01:02:27.034Z,100.00
2023-03-15T01:03:29.258Z,100.00
2023-03-15T01:04:34.683Z,100.00
2023-03-15T01:05:36.983Z,100.00
2023-03-15T01:06:42.444Z,100.00
2023-03-15T01:07:45.688Z,100.00
2023-03-15T01:08:51.551Z,100.00
2023-03-15T01:09:53.547Z,100.00
2023-03-15T01:10:58.121Z,100.00
2023-03-15T01:12:00.149Z,100.00
2023-03-15T01:13:04.758Z,100.00
2023-03-15T01:14:08.936Z,100.00
2023-03-15T01:15:16.218Z,100.00
2023-03-15T01:16:21.155Z,100.00
2023-03-15T01:17:25.814Z,100.00
2023-03-15T01:18:28.046Z,100.00
2023-03-15T01:19:32.862Z,100.00
2023-03-15T01:20:35.056Z,100.00
2023-03-15T01:21:39.780Z,100.00
2023-03-15T01:22:41.804Z,100.00
2023-03-15T01:23:46.483Z,100.00
2023-03-15T01:24:48.545Z,100.00
2023-03-15T01:25:53.344Z,100.00
2023-03-15T01:26:55.343Z,100.00
2023-03-15T01:27:59.885Z,100.00
2023-03-15T01:29:01.953Z,100.00
2023-03-15T01:30:07.233Z,100.00
2023-03-15T01:31:17.423Z,100.00
2023-03-15T01:32:27.209Z,100.00
2023-03-15T01:33:29.434Z,100.00
2023-03-15T01:34:34.396Z,100.00
2023-03-15T01:35:36.424Z,100.00
2023-03-15T01:36:41.244Z,100.00
2023-03-15T01:37:43.224Z,100.00
2023-03-15T01:38:49.681Z,100.00
2023-03-15T01:39:51.877Z,100.00
2023-03-15T01:40:56.442Z,100.00
2023-03-15T01:42:01.195Z,100.00
2023-03-15T01:43:16.052Z,100.00
2023-03-15T01:44:24.236Z,100.00
2023-03-15T01:46:04.925Z,100.00
2023-03-15T01:47:09.744Z,100.00
2023-03-15T01:48:14.703Z,100.00
2023-03-15T01:49:25.081Z,100.00
2023-03-15T01:50:27.256Z,100.00
2023-03-15T01:51:37.640Z,100.00
2023-03-15T01:52:45.780Z,100.00
2023-03-15T01:53:54.397Z,100.00
2023-03-15T01:55:02.888Z,100.00
2023-03-15T01:56:06.403Z,100.00
2023-03-15T01:57:16.081Z,100.00
2023-03-15T01:58:18.310Z,100.00
2023-03-15T01:59:26.748Z,100.00
2023-03-15T02:00:28.887Z,100.00
2023-03-15T02:01:33.964Z,100.00
2023-03-15T02:02:36.547Z,100.00
2023-03-15T02:03:47.642Z,100.00
2023-03-15T02:04:56.124Z,100.00
2023-03-15T02:06:03.538Z,100.00
2023-03-15T02:07:09.838Z,100.00
2023-03-15T02:08:15.849Z,100.00
2023-03-15T02:09:22.450Z,100.00
2023-03-15T02:10:30.961Z,100.00
2023-03-15T02:11:37.660Z,100.00
2023-03-15T02:12:45.526Z,100.00
2023-03-15T02:13:51.854Z,100.00
2023-03-15T02:14:54.839Z,100.00
2023-03-15T02:16:00.213Z,100.00
2023-03-15T02:17:02.481Z,100.00
2023-03-15T02:18:07.086Z,100.00
2023-03-15T02:19:25.919Z,100.00
2023-03-15T02:20:39.499Z,100.00
2023-03-15T02:21:50.035Z,100.00
2023-03-15T02:22:57.757Z,100.00
2023-03-15T02:24:09.809Z,100.00
2023-03-15T02:25:21.029Z,100.00
2023-03-15T02:26:30.180Z,100.00
2023-03-15T02:27:39.788Z,100.00
2023-03-15T02:28:42.487Z,100.00
2023-03-15T02:29:47.070Z,100.00
2023-03-15T02:30:49.548Z,100.00
2023-03-15T02:31:55.010Z,100.00
2023-03-15T02:32:58.452Z,100.00
2023-03-15T02:34:04.139Z,100.00
2023-03-15T02:35:06.997Z,100.00
2023-03-15T02:36:20.688Z,100.00
2023-03-15T02:37:22.856Z,100.00
2023-03-15T02:38:27.440Z,100.00
2023-03-15T02:39:29.433Z,100.00
2023-03-15T02:40:34.427Z,100.00
2023-03-15T02:41:39.781Z,100.00
2023-03-15T02:42:48.451Z,100.00
2023-03-15T02:43:55.721Z,100.00
2023-03-15T02:45:00.801Z,100.00
2023-03-15T02:46:04.480Z,100.00
2023-03-15T02:47:13.184Z,100.00
2023-03-15T02:48:16.903Z,100.00
2023-03-15T02:49:24.283Z,100.00
2023-03-15T02:50:26.255Z,100.00
2023-03-15T02:51:32.731Z,100.00
2023-03-15T02:52:34.693Z,100.00
2023-03-15T02:53:39.273Z,100.00
2023-03-15T02:54:43.576Z,100.00
2023-03-15T02:55:48.455Z,100.00
2023-03-15T02:56:50.409Z,100.00
2023-03-15T02:57:57.666Z,100.00
2023-03-15T02:58:59.842Z,100.00
2023-03-15T03:00:14.585Z,100.00
2023-03-15T03:01:20.849Z,100.00
2023-03-15T03:02:23.948Z,100.00
2023-03-15T03:03:28.590Z,100.00
2023-03-15T03:04:30.611Z,100.00
2023-03-15T03:05:35.199Z,100.00
2023-03-15T03:06:37.406Z,100.00
2023-03-15T03:07:42.888Z,100.00
2023-03-15T03:08:47.371Z,100.00
2023-03-15T03:09:52.073Z,100.00
2023-03-15T03:10:54.136Z,100.00
2023-03-15T03:11:58.819Z,100.00
2023-03-15T03:13:03.409Z,100.00
2023-03-15T03:14:08.226Z,100.00
2023-03-15T03:15:11.712Z,100.00
2023-03-15T03:16:16.345Z,100.00
2023-03-15T03:17:19.146Z,100.00
2023-03-15T03:18:23.718Z,100.00
2023-03-15T03:19:26.040Z,100.00
2023-03-15T03:20:30.822Z,100.00
2023-03-15T03:21:32.812Z,100.00
2023-03-15T03:22:37.460Z,100.00
2023-03-15T03:23:39.483Z,100.00
2023-03-15T03:24:46.019Z,100.00
2023-03-15T03:25:48.109Z,100.00
2023-03-15T03:26:57.953Z,100.00
2023-03-15T03:28:04.436Z,100.00
2023-03-15T03:29:09.062Z,100.00
2023-03-15T03:30:13.870Z,100.00
2023-03-15T03:31:21.168Z,100.00
2023-03-15T03:32:23.264Z,100.00
2023-03-15T03:33:27.998Z,100.00
2023-03-15T03:34:30.016Z,100.00
2023-03-15T03:35:34.756Z,100.00
2023-03-15T03:36:37.149Z,100.00
2023-03-15T03:37:41.796Z,100.00
2023-03-15T03:38:46.259Z,100.00
2023-03-15T03:39:51.003Z,100.00
2023-03-15T03:40:52.993Z,100.00
2023-03-15T03:41:57.610Z,100.00
2023-03-15T03:43:02.197Z,100.00
2023-03-15T03:44:07.003Z,100.00
2023-03-15T03:45:10.310Z,100.00
2023-03-15T03:46:14.995Z,100.00
2023-03-15T03:47:17.110Z,100.00
2023-03-15T03:48:21.686Z,100.00
2023-03-15T03:49:23.765Z,100.00
2023-03-15T03:50:28.562Z,100.00
2023-03-15T03:51:31.044Z,100.00
2023-03-15T03:52:35.643Z,100.00
2023-03-15T03:53:37.673Z,100.00
2023-03-15T03:54:42.772Z,100.00
2023-03-15T03:55:45.502Z,100.00
2023-03-15T03:56:50.638Z,100.00
2023-03-15T03:57:53.092Z,100.00
2023-03-15T03:59:00.578Z,100.00
2023-03-15T04:00:02.656Z,100.00
2023-03-15T04:01:07.651Z,100.00
2023-03-15T04:02:09.886Z,100.00
2023-03-15T04:03:14.650Z,100.00
2023-03-15T04:04:17.011Z,100.00
2023-03-15T04:05:21.609Z,100.00
2023-03-15T04:06:23.668Z,100.00
2023-03-15T04:07:28.318Z,100.00
2023-03-15T04:08:30.325Z,100.00
2023-03-15T04:09:37.857Z,100.00
2023-03-15T04:10:39.941Z,100.00
2023-03-15T04:11:45.883Z,100.00
2023-03-15T04:12:47.834Z,100.00
2023-03-15T04:13:52.440Z,100.00
2023-03-15T04:14:59.629Z,100.00
2023-03-15T04:16:03.890Z,100.00
2023-03-15T04:17:08.844Z,100.00
2023-03-15T04:18:10.867Z,100.00
2023-03-15T04:19:15.695Z,100.00
2023-03-15T04:20:17.819Z,100.00
2023-03-15T04:21:23.666Z,100.00
2023-03-15T04:22:25.649Z,100.00
2023-03-15T04:23:30.206Z,100.00
2023-03-15T04:24:32.702Z,100.00
2023-03-15T04:25:37.257Z,100.00
2023-03-15T04:26:39.315Z,100.00
2023-03-15T04:27:43.940Z,100.00
2023-03-15T04:28:45.985Z,100.00
2023-03-15T04:29:50.764Z,100.00
2023-03-15T04:31:01.557Z,100.00
2023-03-15T04:32:06.262Z,100.00
2023-03-15T04:33:09.448Z,100.00
2023-03-15T04:34:14.034Z,100.00
2023-03-15T04:35:16.145Z,100.00
2023-03-15T04:36:21.149Z,100.00
2023-03-15T04:37:23.128Z,100.00
2023-03-15T04:38:28.168Z,100.00
2023-03-15T04:39:30.414Z,100.00
2023-03-15T04:40:35.800Z,100.00
2023-03-15T04:41:39.563Z,100.00
2023-03-15T04:42:44.212Z,100.00
2023-03-15T04:43:46.646Z,100.00
2023-03-15T04:44:51.295Z,100.00
2023-03-15T04:45:55.893Z,100.00
2023-03-15T04:47:00.938Z,100.00
2023-03-15T04:48:03.641Z,100.00
2023-03-15T04:49:08.268Z,100.00
2023-03-15T04:50:11.748Z,100.00
2023-03-15T04:51:16.347Z,100.00
2023-03-15T04:52:18.322Z,100.00
2023-03-15T04:53:22.919Z,100.00
2023-03-15T04:54:25.031Z,100.00
2023-03-15T04:55:29.704Z,100.00
2023-03-15T04:56:31.920Z,100.00
2023-03-15T04:57:36.736Z,100.00
2023-03-15T04:58:38.701Z,100.00
2023-03-15T04:59:43.230Z,100.00
2023-03-15T05:00:45.345Z,100.00
2023-03-15T05:01:52.562Z,100.00
2023-03-15T05:02:55.245Z,100.00
2023-03-15T05:04:00.254Z,100.00
2023-03-15T05:05:02.243Z,100.00
2023-03-15T05:06:08.379Z,100.00
2023-03-15T05:07:10.766Z,100.00
2023-03-15T05:08:15.381Z,100.00
2023-03-15T05:09:19.370Z,100.00
2023-03-15T05:10:24.042Z,100.00
2023-03-15T05:11:26.589Z,100.00
2023-03-15T05:12:31.316Z,100.00
2023-03-15T05:13:33.364Z,100.00
2023-03-15T05:14:37.973Z,100.00
2023-03-15T05:15:40.006Z,100.00
2023-03-15T05:16:44.612Z,100.00
2023-03-15T05:17:49.179Z,100.00
2023-03-15T05:18:54.134Z,100.00
2023-03-15T05:19:56.235Z,100.00
2023-03-15T05:21:00.831Z,100.00
2023-03-15T05:22:04.220Z,100.00
2023-03-15T05:23:08.843Z,100.00
2023-03-15T05:24:10.800Z,100.00
2023-03-15T05:25:15.765Z,100.00
2023-03-15T05:26:17.747Z,100.00
2023-03-15T05:27:22.649Z,100.00
2023-03-15T05:28:26.118Z,100.00
2023-03-15T05:29:30.948Z,100.00
2023-03-15T05:30:33.083Z,100.00
2023-03-15T05:31:37.818Z,100.00
2023-03-15T05:32:39.956Z,100.00
2023-03-15T05:33:48.145Z,100.00
2023-03-15T05:34:50.163Z,100.00
2023-03-15T05:35:56.657Z,100.00
2023-03-15T05:36:58.717Z,100.00
2023-03-15T05:38:03.702Z,100.00
2023-03-15T05:39:05.725Z,100.00
2023-03-15T05:40:12.408Z,100.00
2023-03-15T05:41:18.390Z,100.00
2023-03-15T05:42:26.324Z,100.00
2023-03-15T05:43:28.358Z,100.00
2023-03-15T05:44:32.913Z,100.00
2023-03-15T05:45:34.954Z,100.00
2023-03-15T05:46:39.874Z,100.00
2023-03-15T05:47:41.938Z,100.00
2023-03-15T05:48:49.155Z,100.00
2023-03-15T05:49:52.485Z,100.00
2023-03-15T05:50:57.186Z,100.00
2023-03-15T05:51:59.361Z,100.00
2023-03-15T05:53:03.939Z,100.00
2023-03-15T05:54:06.042Z,100.00
2023-03-15T05:55:11.558Z,100.00
2023-03-15T05:56:13.732Z,100.00
2023-03-15T05:57:18.741Z,100.00
2023-03-15T05:58:20.744Z,100.00
2023-03-15T05:59:25.442Z,100.00
2023-03-15T06:00:27.674Z,100.00
2023-03-15T06:01:32.344Z,100.00
2023-03-15T06:02:34.346Z,100.00
2023-03-15T06:03:39.070Z,100.00
2023-03-15T06:04:44.007Z,100.00
2023-03-15T06:05:48.713Z,100.00
2023-03-15T06:06:50.903Z,100.00
2023-03-15T06:07:55.568Z,100.00
2023-03-15T06:08:57.620Z,100.00
2023-03-15T06:10:02.228Z,100.00
2023-03-15T06:11:04.297Z,100.00
2023-03-15T06:12:09.428Z,100.00
2023-03-15T06:13:11.587Z,100.00
2023-03-15T06:14:16.213Z,100.00
2023-03-15T06:15:18.679Z,100.00
2023-03-15T06:16:23.317Z,100.00
2023-03-15T06:17:25.361Z,100.00
2023-03-15T06:18:29.967Z,100.00
2023-03-15T06:19:32.111Z,100.00
2023-03-15T06:20:39.868Z,100.00
2023-03-15T06:21:41.909Z,100.00
2023-03-15T06:22:46.580Z,100.00
2023-03-15T06:23:48.697Z,100.00
2023-03-15T06:24:53.389Z,100.00
2023-03-15T06:25:55.441Z,100.00
2023-03-15T06:27:00.016Z,100.00
2023-03-15T06:28:02.255Z,100.00
2023-03-15T06:29:06.948Z,100.00
2023-03-15T06:30:10.173Z,100.00
2023-03-15T06:31:16.600Z,100.00
2023-03-15T06:32:18.612Z,100.00
2023-03-15T06:33:24.475Z,100.00
2023-03-15T06:34:26.502Z,100.00
2023-03-15T06:35:31.174Z,100.00
2023-03-15T06:36:37.118Z,100.00
2023-03-15T06:37:41.966Z,100.00
2023-03-15T06:38:44.072Z,100.00
2023-03-15T06:39:48.751Z,100.00
2023-03-15T06:40:50.764Z,100.00
2023-03-15T06:41:58.623Z,100.00
2023-03-15T06:43:05.999Z,100.00
2023-03-15T06:44:11.066Z,100.00
2023-03-15T06:45:13.243Z,100.00
2023-03-15T06:46:17.984Z,100.00
2023-03-15T06:47:20.082Z,100.00
2023-03-15T06:48:24.826Z,100.00
2023-03-15T06:49:26.861Z,100.00
2023-03-15T06:50:40.647Z,100.00
2023-03-15T06:51:53.584Z,100.00
2023-03-15T06:52:56.987Z,100.00
2023-03-15T06:54:01.723Z,100.00
2023-03-15T06:55:04.556Z,100.00
2023-03-15T06:56:10.029Z,100.00
2023-03-15T06:57:12.376Z,100.00
2023-03-15T06:58:18.031Z,100.00
2023-03-15T06:59:19.992Z,100.00
2023-03-15T07:00:25.112Z,100.00
2023-03-15T07:01:27.192Z,100.00
2023-03-15T07:02:37.743Z,100.00
2023-03-15T07:03:42.485Z,100.00
2023-03-15T07:04:45.378Z,100.00
2023-03-15T07:05:52.684Z,100.00
2023-03-15T07:06:59.938Z,100.00
2023-03-15T07:08:01.955Z,100.00
2023-03-15T07:09:07.593Z,100.00
2023-03-15T07:10:11.322Z,100.00
2023-03-15T07:11:16.367Z,100.00
2023-03-15T07:12:18.363Z,100.00
2023-03-15T07:13:22.967Z,100.00
2023-03-15T07:14:25.111Z,100.00
2023-03-15T07:15:29.991Z,100.00
2023-03-15T07:16:32.010Z,100.00
2023-03-15T07:17:36.612Z,100.00
2023-03-15T07:18:41.380Z,100.00
2023-03-15T07:19:55.509Z,100.00
2023-03-15T07:21:01.662Z,100.00
2023-03-15T07:22:06.598Z,100.00
2023-03-15T07:23:11.189Z,100.00
2023-03-15T07:24:13.283Z,100.00
2023-03-15T07:25:23.885Z,100.00
2023-03-15T07:26:25.989Z,100.00
2023-03-15T07:27:30.708Z,100.00
2023-03-15T07:28:32.691Z,100.00
2023-03-15T07:29:37.301Z,100.00
2023-03-15T07:30:39.360Z,100.00
2023-03-15T07:31:43.995Z,100.00
2023-03-15T07:32:46.757Z,100.00
2023-03-15T07:33:51.684Z,100.00
2023-03-15T07:34:58.356Z,100.00
2023-03-15T07:36:04.369Z,100.00
2023-03-15T07:37:09.270Z,100.00
2023-03-15T07:38:14.014Z,100.00
2023-03-15T07:39:16.406Z,100.00
2023-03-15T07:40:21.354Z,100.00
2023-03-15T07:41:25.986Z,100.00
2023-03-15T07:42:28.001Z,100.00
2023-03-15T07:43:32.650Z,100.00
2023-03-15T07:44:34.681Z,100.00
2023-03-15T07:45:39.352Z,100.00
2023-03-15T07:46:44.049Z,100.00
2023-03-15T07:47:46.086Z,100.00
2023-03-15T07:48:50.723Z,100.00
2023-03-15T07:49:52.762Z,100.00
2023-03-15T07:50:57.592Z,100.00
2023-03-15T07:51:59.663Z,100.00
2023-03-15T07:53:07.358Z,100.00
2023-03-15T07:54:09.653Z,100.00
2023-03-15T07:55:14.265Z,100.00
2023-03-15T07:56:16.514Z,100.00
2023-03-15T07:57:21.246Z,100.00
2023-03-15T07:58:23.546Z,100.00
2023-03-15T07:59:28.185Z,100.00
2023-03-15T08:00:30.613Z,100.00
2023-03-15T08:01:35.307Z,100.00
2023-03-15T08:02:37.449Z,100.00
2023-03-15T08:03:42.227Z,100.00
2023-03-15T08:04:44.902Z,100.00
2023-03-15T08:05:49.493Z,100.00
2023-03-15T08:06:51.499Z,100.00
2023-03-15T08:07:56.749Z,100.00
2023-03-15T08:09:04.101Z,100.00
2023-03-15T08:10:09.899Z,100.00
2023-03-15T08:11:14.464Z,100.00
2023-03-15T08:12:16.491Z,100.00
2023-03-15T08:13:21.354Z,100.00
2023-03-15T08:14:25.971Z,100.00
2023-03-15T08:15:31.208Z,100.00
2023-03-15T08:16:33.350Z,100.00
2023-03-15T08:17:37.984Z,100.00
2023-03-15T08:18:40.102Z,100.00
2023-03-15T08:19:44.912Z,100.00
2023-03-15T08:20:46.950Z,100.00
2023-03-15T08:21:54.024Z,100.00
2023-03-15T08:22:56.249Z,100.00
2023-03-15T08:24:03.823Z,100.00
2023-03-15T08:25:07.578Z,100.00
2023-03-15T08:26:12.137Z,100.00
2023-03-15T08:27:14.327Z,100.00
2023-03-15T08:28:19.066Z,100.00
2023-03-15T08:29:23.745Z,100.00
2023-03-15T08:30:28.425Z,100.00
2023-03-15T08:31:33.146Z,100.00
2023-03-15T08:32:35.244Z,100.00
2023-03-15T08:33:39.963Z,100.00
2023-03-15T08:34:42.452Z,100.00
2023-03-15T08:35:47.066Z,100.00
2023-03-15T08:36:49.622Z,100.00
2023-03-15T08:37:54.407Z,100.00
2023-03-15T08:38:56.375Z,100.00
2023-03-15T08:40:09.489Z,100.00
2023-03-15T08:41:14.071Z,100.00
2023-03-15T08:42:16.073Z,100.00
2023-03-15T08:43:20.890Z,100.00
2023-03-15T08:44:22.985Z,100.00
2023-03-15T08:45:28.710Z,100.00
2023-03-15T08:46:33.460Z,100.00
2023-03-15T08:47:36.368Z,100.00
2023-03-15T08:48:41.203Z,100.00
2023-03-15T08:49:43.216Z,100.00
2023-03-15T08:50:47.917Z,100.00
2023-03-15T08:51:52.559Z,100.00
2023-03-15T08:52:54.835Z,100.00
2023-03-15T08:53:59.676Z,100.00
2023-03-15T08:55:05.300Z,100.00
2023-03-15T08:56:10.372Z,100.00
2023-03-15T08:57:12.922Z,100.00
2023-03-15T08:58:17.559Z,100.00
2023-03-15T08:59:31.335Z,100.00
2023-03-15T09:00:37.737Z,100.00
2023-03-15T09:01:44.954Z,100.00
2023-03-15T09:02:52.188Z,100.00
2023-03-15T09:03:54.348Z,100.00
2023-03-15T09:04:59.125Z,100.00
2023-03-15T09:06:03.809Z,100.00
2023-03-15T09:07:06.228Z,100.00
2023-03-15T09:08:10.961Z,100.00
2023-03-15T09:09:17.610Z,100.00
2023-03-15T09:10:25.448Z,100.00
2023-03-15T09:11:27.453Z,99.15
2023-03-15T09:12:31.988Z,95.08
2023-03-15T09:13:34.069Z,98.98
2023-03-15T09:14:38.950Z,98.31
2023-03-15T09:15:43.739Z,94.82
2023-03-15T09:16:45.813Z,97.03
2023-03-15T09:17:52.040Z,97.38
2023-03-15T09:18:56.799Z,94.82
2023-03-15T09:20:01.581Z,100.00
2023-03-15T09:21:08.093Z,100.00
2023-03-15T09:22:17.187Z,100.00
2023-03-15T09:23:28.305Z,100.00
2023-03-15T09:24:30.701Z,100.00
2023-03-15T09:25:38.084Z,96.66
2023-03-15T09:26:40.118Z,88.42
2023-03-15T09:27:44.947Z,89.01
2023-03-15T09:28:49.566Z,90.83
2023-03-15T09:29:51.533Z,90.27
2023-03-15T09:30:58.219Z,87.14
2023-03-15T09:32:02.231Z,90.21
2023-03-15T09:33:07.658Z,84.80
2023-03-15T09:34:10.526Z,80.55
2023-03-15T09:35:17.431Z,79.08
2023-03-15T09:36:22.061Z,73.35
2023-03-15T09:37:24.091Z,75.58
2023-03-15T09:38:29.031Z,75.15
2023-03-15T09:39:33.549Z,71.93
2023-03-15T09:40:45.162Z,68.37
2023-03-15T09:41:49.367Z,65.70
2023-03-15T09:43:02.575Z,66.92
2023-03-15T09:44:16.629Z,69.80
2023-03-15T09:45:28.223Z,69.85
2023-03-15T09:46:33.784Z,78.49
2023-03-15T09:47:48.381Z,73.79
2023-03-15T09:48:57.231Z,70.16
2023-03-15T09:50:07.555Z,71.56
2023-03-15T09:51:17.971Z,67.43
2023-03-15T09:52:30.909Z,69.86
2023-03-15T09:53:41.336Z,68.23
2023-03-15T09:54:51.688Z,67.58
2023-03-15T09:55:58.884Z,73.50
2023-03-15T09:57:03.761Z,68.16
2023-03-15T09:58:15.211Z,69.99
2023-03-15T09:59:22.785Z,68.17
2023-03-15T10:00:36.655Z,64.94
2023-03-15T10:01:45.432Z,65.94
2023-03-15T10:02:56.019Z,66.13
2023-03-15T10:04:00.692Z,66.53
2023-03-15T10:05:10.106Z,66.59
2023-03-15T10:06:20.784Z,67.24
2023-03-15T10:07:22.885Z,69.23
2023-03-15T10:08:28.063Z,65.52
2023-03-15T10:09:35.932Z,70.78
2023-03-15T10:10:45.024Z,63.42
2023-03-15T10:12:02.012Z,66.58
2023-03-15T10:13:21.546Z,66.39
2023-03-15T10:14:39.459Z,65.43
2023-03-15T10:15:57.803Z,66.95
2023-03-15T10:17:04.241Z,70.73
2023-03-15T10:18:28.137Z,70.01
2023-03-15T10:19:45.917Z,74.83
2023-03-15T10:20:59.276Z,76.00
2023-03-15T10:22:10.054Z,73.54
2023-03-15T10:23:19.530Z,66.77
2023-03-15T10:24:29.159Z,67.95
2023-03-15T10:25:32.944Z,67.93
2023-03-15T10:28:17.112Z,68.03
2023-03-15T10:29:26.646Z,69.14
2023-03-15T10:30:31.031Z,66.76
2023-03-15T10:31:44.774Z,64.90
2023-03-15T10:32:55.374Z,67.79
2023-03-15T10:34:00.460Z,65.83
2023-03-15T10:35:05.225Z,69.43
2023-03-15T10:36:19.034Z,70.54
2023-03-15T10:37:23.996Z,69.39
2023-03-15T10:38:29.744Z,69.67
2023-03-15T10:39:31.953Z,70.75
2023-03-15T10:40:44.463Z,66.00
2023-03-15T10:41:51.814Z,69.89
2023-03-15T10:42:54.234Z,70.77
2023-03-15T10:44:08.020Z,72.02
2023-03-15T10:45:20.088Z,72.76
2023-03-15T10:46:26.293Z,74.49
2023-03-15T10:47:28.610Z,76.66
2023-03-15T10:48:34.649Z,73.29
2023-03-15T10:49:39.106Z,74.20
2023-03-15T10:50:43.698Z,75.21
2023-03-15T10:51:50.559Z,72.51
2023-03-15T10:52:58.425Z,76.39
2023-03-15T10:54:07.459Z,71.73
2023-03-15T10:55:17.179Z,73.71
2023-03-15T10:56:25.907Z,73.41
2023-03-15T10:57:36.217Z,73.16
2023-03-15T10:59:05.370Z,69.59
2023-03-15T11:00:34.462Z,66.95
2023-03-15T11:01:36.537Z,65.19
2023-03-15T11:02:42.661Z,66.95
2023-03-15T11:03:44.851Z,67.53
2023-03-15T11:04:52.663Z,65.57
2023-03-15T11:05:57.108Z,63.70
2023-03-15T11:07:04.866Z,65.32
2023-03-15T11:08:12.582Z,68.17
2023-03-15T11:09:20.343Z,70.18
2023-03-15T11:10:23.457Z,65.97
2023-03-15T11:11:28.205Z,68.54
2023-03-15T11:12:34.962Z,66.84
2023-03-15T11:13:41.368Z,65.17
2023-03-15T11:14:46.620Z,66.58
2023-03-15T11:16:01.543Z,64.88
2023-03-15T11:17:09.369Z,64.41
2023-03-15T11:18:18.682Z,64.94
2023-03-15T11:19:26.673Z,64.18
2023-03-15T11:20:31.632Z,62.99
2023-03-15T11:21:38.337Z,63.28
2023-03-15T11:22:42.976Z,62.46
2023-03-15T11:23:50.970Z,61.70
2023-03-15T11:24:54.742Z,62.72
2023-03-15T11:25:59.555Z,58.56
2023-03-15T11:27:03.413Z,59.81
2023-03-15T11:28:08.494Z,60.52
2023-03-15T11:29:17.672Z,61.18
2023-03-15T11:30:27.784Z,60.19
2023-03-15T11:31:35.237Z,63.64
2023-03-15T11:32:40.957Z,59.00
2023-03-15T11:33:54.664Z,60.83
2023-03-15T11:35:05.521Z,60.47
2023-03-15T11:36:13.694Z,60.42
2023-03-15T11:37:24.201Z,60.67
2023-03-15T11:38:33.595Z,62.01
2023-03-15T11:39:45.469Z,64.39
2023-03-15T11:40:56.815Z,62.13
2023-03-15T11:42:11.007Z,61.54
2023-03-15T11:43:21.418Z,61.98
2023-03-15T11:44:30.407Z,64.88
2023-03-15T11:45:41.901Z,64.88
2023-03-15T11:46:50.800Z,63.73
2023-03-15T11:47:59.476Z,64.78
2023-03-15T11:49:10.284Z,65.44
2023-03-15T11:50:17.041Z,67.16
2023-03-15T11:51:21.892Z,66.30
2023-03-15T11:52:29.309Z,66.35
2023-03-15T11:53:35.817Z,66.95
2023-03-15T11:54:40.642Z,66.44
2023-03-15T11:55:53.727Z,68.51
2023-03-15T11:56:57.898Z,69.46
2023-03-15T11:58:33.813Z,72.30
2023-03-15T11:59:42.230Z,73.84
2023-03-15T12:00:57.712Z,76.26
2023-03-15T12:02:52.002Z,76.32
2023-03-15T12:04:40.825Z,81.42
2023-03-15T12:05:45.612Z,81.79
2023-03-15T12:06:53.364Z,83.18
2023-03-15T12:08:03.197Z,85.94
2023-03-15T12:09:37.727Z,91.05
2023-03-15T12:10:49.923Z,91.35
2023-03-15T12:11:52.745Z,94.83
2023-03-15T12:13:01.753Z,91.96
2023-03-15T12:14:06.695Z,92.85
2023-03-15T12:15:46.989Z,87.91
2023-03-15T12:16:51.959Z,87.46
2023-03-15T12:17:56.393Z,87.81
2023-03-15T12:19:02.506Z,91.41
2023-03-15T12:20:18.303Z,95.34
2023-03-15T12:21:26.265Z,95.82
2023-03-15T12:22:33.359Z,95.12
2023-03-15T12:23:44.656Z,97.09
2023-03-15T12:24:51.107Z,100.00
2023-03-15T12:25:56.333Z,100.00
2023-03-15T12:27:06.157Z,100.00
2023-03-15T12:28:10.955Z,99.47
2023-03-15T12:29:19.799Z,100.00
2023-03-15T12:30:30.161Z,100.00
2023-03-15T12:31:54.971Z,100.00
2023-03-15T12:33:00.450Z,100.00
2023-03-15T12:34:05.806Z,100.00
2023-03-15T12:35:20.260Z,100.00
2023-03-15T12:36:37.703Z,98.35
2023-03-15T12:37:48.134Z,99.07
2023-03-15T12:39:01.600Z,100.00
2023-03-15T12:40:41.677Z,100.00
2023-03-15T12:41:49.419Z,100.00
2023-03-15T12:43:15.129Z,100.00
2023-03-15T12:44:41.066Z,100.00
2023-03-15T12:45:45.735Z,100.00
2023-03-15T12:46:58.800Z,99.03
2023-03-15T12:48:22.391Z,97.20
2023-03-15T12:49:39.846Z,100.00
2023-03-15T12:50:53.063Z,98.37
2023-03-15T12:52:00.453Z,100.00
2023-03-15T12:53:05.045Z,100.00
2023-03-15T12:54:16.960Z,100.00
2023-03-15T12:55:19.318Z,100.00
2023-03-15T12:56:36.655Z,100.00
2023-03-15T12:57:47.974Z,100.00
2023-03-15T12:58:54.423Z,100.00
2023-03-15T13:00:01.972Z,100.00
2023-03-15T13:01:10.360Z,100.00
2023-03-15T13:02:43.945Z,100.00
2023-03-15T13:03:46.461Z,100.00
2023-03-15T13:04:51.292Z,100.00
2023-03-15T13:06:05.980Z,100.00
2023-03-15T13:07:23.808Z,100.00
2023-03-15T13:08:33.171Z,100.00
2023-03-15T13:09:53.929Z,100.00
2023-03-15T13:11:20.810Z,100.00
2023-03-15T13:12:33.732Z,100.00
2023-03-15T13:13:54.320Z,100.00
2023-03-15T13:15:04.986Z,100.00
2023-03-15T13:16:20.150Z,100.00
2023-03-15T13:17:37.994Z,100.00
2023-03-15T13:18:52.926Z,100.00
2023-03-15T13:20:06.097Z,100.00
2023-03-15T13:21:18.436Z,100.00
2023-03-15T13:22:29.680Z,100.00
2023-03-15T13:23:35.830Z,100.00
2023-03-15T13:24:48.470Z,100.00
2023-03-15T13:26:03.981Z,100.00
2023-03-15T13:27:19.328Z,100.00
2023-03-15T13:28:27.666Z,100.00
2023-03-15T13:29:34.435Z,100.00
2023-03-15T13:30:42.000Z,100.00
2023-03-15T13:31:45.278Z,100.00
2023-03-15T13:32:50.292Z,100.00
2023-03-15T13:33:57.627Z,100.00
2023-03-15T13:35:02.301Z,100.00
2023-03-15T13:36:10.847Z,100.00
2023-03-15T13:37:18.480Z,100.00
2023-03-15T13:38:27.842Z,100.00
2023-03-15T13:39:34.647Z,100.00
2023-03-15T13:40:46.321Z,100.00
2023-03-15T13:41:50.690Z,100.00
2023-03-15T13:42:52.918Z,100.00
2023-03-15T13:44:05.150Z,100.00
2023-03-15T13:45:17.168Z,100.00
2023-03-15T13:46:22.964Z,100.00
2023-03-15T13:47:29.317Z,100.00
2023-03-15T13:48:36.532Z,100.00
2023-03-15T13:49:41.072Z,100.00
2023-03-15T13:50:48.863Z,100.00
2023-03-15T13:51:56.038Z,100.00
2023-03-15T13:52:58.604Z,100.00
2023-03-15T13:54:07.759Z,100.00